首页
METAR-TAF:

METAR-TAF

机场 :

瓦加杜古國際機場

瓦加杜古, 布吉納法索

纬度: 12-21N, 经度: 001-31W, 海拔: 316米

当前天气观测

该预报发布于2小时和28分钟前的09:00 UTC
风速8节,风向北转东北
温度 23°C
湿度 17%
气压 1014 hPa
能见度10公里或以上
1500米以下无云,无积雨云

METAR: DFFD 240900Z 03008KT CAVOK 23/M03 Q1014 NOSIG

时间: 11:28 (11:28 UTC)

预报

该预报发布于6小时和28分钟前的05:00 UTC
预报有效从24日的 06点(UTC)到 25日的 12点(UTC)
风速8节,风向北转东北
能見度: 8000

TAF: DFFD 240500Z 2406/2512 02008KT 8000 NSC

超过4000个机场的气象观测和天气预报(METAR&TAF报告)。

可查询的气象台以黄色和红色小点在地图上表示。

将鼠标移到小点上方,可查看气象台名称。

然后点击查看天气观测和预报。

如需切换地图:点击带黑十字的绿色按钮放大地图;点击带横线的绿色按钮缩小地图;或者点击绿色箭头查看邻近地区的地图。


METAR-TAF: